Time;durP1;ratioP1;P1;durP2;ratioP2;P2;SDS_P1;SDS_P2;PMS_P1;PMS_P2;Temp;Humidity;BMP_temperature;BMP_pressure;BME280_temperature;BME280_humidity;BME280_pressure;Samples;Min_cycle;Max_cycle;Signal;HPM_P1;HPM_P2
2023/05/20 00:02:00;;;;;;;7.68;4.60;;;11.00;99.90;;;;;;5070393;28;20402;-80
2023/05/20 00:04:26;;;;;;;7.32;4.60;;;11.00;99.90;;;;;;5068205;28;20032;-80
2023/05/20 00:06:53;;;;;;;10.68;5.22;;;11.00;99.90;;;;;;5070772;28;20490;-80
2023/05/20 00:09:19;;;;;;;9.85;4.93;;;10.90;99.90;;;;;;5069928;28;20036;-80
2023/05/20 00:11:45;;;;;;;7.35;4.13;;;10.90;99.90;;;;;;5070923;28;20048;-80
2023/05/20 00:14:11;;;;;;;9.52;5.07;;;11.30;99.90;;;;;;5071030;28;20047;-80
2023/05/20 00:16:36;;;;;;;7.03;4.93;;;10.90;99.90;;;;;;5088218;28;20044;-80
2023/05/20 00:19:02;;;;;;;8.10;4.13;;;10.80;99.90;;;;;;5069396;28;20074;-80
2023/05/20 00:21:28;;;;;;;7.30;4.50;;;10.80;99.90;;;;;;5042961;28;20087;-80
2023/05/20 00:23:55;;;;;;;6.78;4.03;;;10.80;99.90;;;;;;5053362;28;20068;-80
2023/05/20 00:26:21;;;;;;;6.55;4.30;;;10.90;99.90;;;;;;5061700;28;20044;-80
2023/05/20 00:28:47;;;;;;;8.45;4.57;;;10.80;99.90;;;;;;5070530;28;20105;-80
2023/05/20 00:31:12;;;;;;;7.68;4.30;;;10.80;99.90;;;;;;5068182;28;20040;-80
2023/05/20 00:33:38;;;;;;;9.23;5.03;;;10.80;99.90;;;;;;5068672;28;20036;-80
2023/05/20 00:36:04;;;;;;;7.95;4.03;;;10.80;99.90;;;;;;5070173;28;20043;-80
2023/05/20 00:38:30;;;;;;;8.45;4.55;;;10.80;99.90;;;;;;5067357;28;20182;-80
2023/05/20 00:40:56;;;;;;;8.30;4.85;;;10.80;99.90;;;;;;5068871;28;20811;-81
2023/05/20 00:43:24;;;;;;;7.38;4.95;;;10.80;99.90;;;;;;5053109;28;20127;-80
2023/05/20 00:45:52;;;;;;;7.28;4.35;;;10.90;99.90;;;;;;5068226;28;20809;-81
2023/05/20 00:48:20;;;;;;;7.80;4.15;;;10.80;99.90;;;;;;5052977;28;20057;-81
2023/05/20 00:50:47;;;;;;;8.70;4.55;;;10.90;99.90;;;;;;5069393;28;20113;-81
2023/05/20 00:53:13;;;;;;;8.27;4.93;;;10.90;99.90;;;;;;5064628;28;20144;-80
2023/05/20 00:55:39;;;;;;;7.35;4.30;;;11.10;99.90;;;;;;5069621;28;20047;-80
2023/05/20 00:58:05;;;;;;;10.40;4.57;;;10.90;99.90;;;;;;5050098;28;20348;-80
2023/05/20 01:00:30;;;;;;;10.23;5.13;;;10.90;99.90;;;;;;5063981;28;20048;-80
2023/05/20 01:02:56;;;;;;;9.07;4.32;;;10.90;99.90;;;;;;5070318;28;20048;-81
2023/05/20 01:05:22;;;;;;;5.10;4.03;;;11.00;99.90;;;;;;5067036;28;20047;-80
2023/05/20 01:07:47;;;;;;;7.30;4.57;;;11.00;99.90;;;;;;5069615;28;21474;-80
2023/05/20 01:10:13;;;;;;;6.57;4.30;;;11.00;99.90;;;;;;5069570;28;20123;-80
2023/05/20 01:12:51;;;;;;;9.05;4.22;;;11.00;99.90;;;;;;5068823;28;20078;-81
2023/05/20 01:15:21;;;;;;;5.57;4.05;;;11.00;99.90;;;;;;5056930;28;20068;-81
2023/05/20 01:17:53;;;;;;;6.53;3.83;;;11.40;99.90;;;;;;5068961;28;20371;-81
2023/05/20 01:20:19;;;;;;;;;;;11.10;99.90;;;;;;5070228;28;20558;-81
2023/05/20 01:22:53;;;;;;;7.35;3.80;;;11.10;99.90;;;;;;5065557;28;19969;-81
2023/05/20 01:25:19;;;;;;;7.03;4.18;;;11.10;99.90;;;;;;5062869;28;20119;-80
2023/05/20 01:27:45;;;;;;;7.50;4.28;;;11.10;99.90;;;;;;5068398;28;20220;-80
2023/05/20 01:30:12;;;;;;;4.97;3.65;;;11.10;99.90;;;;;;5068186;28;20044;-81
2023/05/20 01:32:46;;;;;;;5.85;3.92;;;11.10;99.90;;;;;;5053191;28;20406;-81
2023/05/20 01:35:19;;;;;;;6.63;4.07;;;11.20;99.90;;;;;;5068385;28;20398;-81
2023/05/20 01:37:45;;;;;;;7.40;4.57;;;11.10;99.90;;;;;;5051787;28;20044;-80
2023/05/20 01:40:15;;;;;;;5.95;4.22;;;11.20;99.90;;;;;;5086719;28;20367;-81
2023/05/20 01:42:42;;;;;;;6.07;3.78;;;11.20;99.90;;;;;;5068626;28;20036;-80
2023/05/20 01:45:08;;;;;;;11.63;4.10;;;11.50;99.90;;;;;;5064893;28;20062;-80
2023/05/20 01:47:34;;;;;;;11.15;3.65;;;11.20;99.90;;;;;;5068081;28;20087;-80
2023/05/20 01:50:00;;;;;;;9.15;3.78;;;11.20;99.90;;;;;;5068570;28;20490;-80
2023/05/20 01:52:25;;;;;;;5.93;3.65;;;11.20;99.90;;;;;;5052247;28;20055;-81
2023/05/20 01:54:51;;;;;;;7.78;3.80;;;11.20;99.90;;;;;;5048008;28;20044;-80
2023/05/20 01:57:18;;;;;;;6.97;3.90;;;11.20;99.90;;;;;;5070334;28;20067;-80
2023/05/20 01:59:44;;;;;;;8.98;4.68;;;11.20;99.90;;;;;;5091547;28;20052;-81
2023/05/20 02:02:09;;;;;;;8.52;3.92;;;11.20;99.90;;;;;;5091001;28;20405;-81
2023/05/20 02:04:35;;;;;;;6.05;4.00;;;11.30;99.90;;;;;;5071409;28;20092;-81
2023/05/20 02:07:00;;;;;;;6.80;3.65;;;11.30;99.90;;;;;;5071601;28;20052;-80
2023/05/20 02:09:27;;;;;;;5.10;3.88;;;11.10;99.90;;;;;;5072295;28;20044;-81
2023/05/20 02:11:52;;;;;;;5.32;3.85;;;11.00;99.90;;;;;;5072296;28;20043;-80
2023/05/20 02:14:18;;;;;;;4.82;3.47;;;11.10;99.90;;;;;;5072425;28;20048;-81
2023/05/20 02:16:45;;;;;;;10.23;4.28;;;11.00;99.90;;;;;;5072411;28;20736;-80
2023/05/20 02:19:11;;;;;;;5.88;4.05;;;11.00;99.90;;;;;;5070982;28;20043;-81
2023/05/20 02:21:41;;;;;;;5.30;3.70;;;11.00;99.90;;;;;;5089497;28;20177;-81
2023/05/20 02:24:07;;;;;;;5.00;3.60;;;11.00;99.90;;;;;;5072772;28;20109;-80
2023/05/20 02:26:33;;;;;;;9.38;3.58;;;11.00;99.90;;;;;;5090011;28;20272;-80
2023/05/20 02:28:59;;;;;;;5.82;3.97;;;11.00;99.90;;;;;;5087549;28;20498;-80
2023/05/20 02:31:25;;;;;;;5.38;3.30;;;11.00;99.90;;;;;;5071822;28;20059;-80
2023/05/20 02:33:51;;;;;;;8.02;3.97;;;11.00;99.90;;;;;;5071001;28;20188;-80
2023/05/20 02:36:17;;;;;;;8.88;4.25;;;11.00;99.90;;;;;;5054627;28;20166;-80
2023/05/20 02:38:43;;;;;;;6.10;3.92;;;11.00;99.90;;;;;;5054447;28;20138;-81
2023/05/20 02:41:09;;;;;;;4.70;3.00;;;11.10;99.90;;;;;;5053690;28;20387;-80
2023/05/20 02:43:35;;;;;;;5.93;3.38;;;11.00;99.90;;;;;;5071083;28;20073;-80
2023/05/20 02:46:01;;;;;;;6.10;3.75;;;11.00;99.90;;;;;;5089488;28;20096;-81
2023/05/20 02:48:27;;;;;;;7.85;3.50;;;11.00;99.90;;;;;;5089483;28;20229;-80
2023/05/20 02:50:52;;;;;;;5.68;3.92;;;10.90;99.90;;;;;;5071808;28;20131;-80
2023/05/20 02:53:18;;;;;;;6.47;4.03;;;10.90;99.90;;;;;;5087512;28;20097;-81
2023/05/20 02:55:46;;;;;;;5.70;3.35;;;10.90;99.90;;;;;;5088855;28;20178;-81
2023/05/20 02:58:12;;;;;;;5.40;3.22;;;11.20;99.90;;;;;;5071257;28;20058;-80
2023/05/20 03:00:39;;;;;;;6.38;3.47;;;10.90;99.90;;;;;;5072320;28;20043;-81
2023/05/20 03:03:09;;;;;;;6.18;3.58;;;10.90;99.90;;;;;;5053825;28;20043;-80
2023/05/20 03:05:36;;;;;;;4.85;3.28;;;11.00;99.90;;;;;;5071151;28;20582;-80
2023/05/20 03:08:09;;;;;;;6.72;3.65;;;10.80;99.90;;;;;;5051973;28;20058;-80
2023/05/20 03:10:39;;;;;;;6.45;3.70;;;10.80;99.90;;;;;;5071561;28;20036;-81
2023/05/20 03:13:10;;;;;;;7.03;3.50;;;10.80;99.90;;;;;;5052294;28;20079;-80
2023/05/20 03:15:39;;;;;;;5.85;3.58;;;10.80;99.90;;;;;;5053809;28;20076;-80
2023/05/20 03:18:07;;;;;;;4.90;3.38;;;10.90;99.90;;;;;;5070114;28;20047;-80
2023/05/20 03:20:40;;;;;;;5.47;4.13;;;10.80;99.90;;;;;;5071034;28;20044;-81
2023/05/20 03:23:06;;;;;;;4.32;3.40;;;10.80;99.90;;;;;;5051861;28;20047;-80
2023/05/20 03:25:32;;;;;;;5.38;3.80;;;10.80;99.90;;;;;;5070699;28;20509;-80
2023/05/20 03:27:58;;;;;;;5.32;3.13;;;11.20;99.90;;;;;;5070388;28;20048;-84
2023/05/20 03:30:24;;;;;;;6.78;3.63;;;10.80;99.90;;;;;;5071260;28;20036;-81
2023/05/20 03:32:50;;;;;;;5.78;3.67;;;10.80;99.90;;;;;;5069415;28;20047;-81
2023/05/20 03:35:16;;;;;;;5.75;3.90;;;10.70;99.90;;;;;;5069833;28;20051;-82
2023/05/20 03:37:41;;;;;;;6.53;3.70;;;10.70;99.90;;;;;;5070704;28;20039;-81
2023/05/20 03:40:09;;;;;;;6.57;3.50;;;10.70;99.90;;;;;;5071111;28;20093;-82
2023/05/20 03:42:35;;;;;;;5.15;3.50;;;10.70;99.90;;;;;;5069028;28;20046;-82
2023/05/20 03:45:01;;;;;;;4.35;3.50;;;10.60;99.90;;;;;;5089278;28;20089;-82
2023/05/20 03:47:27;;;;;;;5.80;3.30;;;10.60;99.90;;;;;;5088734;28;20052;-82
2023/05/20 03:49:54;;;;;;;4.80;3.20;;;10.60;99.90;;;;;;5071020;28;20056;-82
2023/05/20 03:52:20;;;;;;;5.53;3.30;;;10.30;99.90;;;;;;5067342;28;20048;-80
2023/05/20 03:54:45;;;;;;;3.90;3.50;;;10.60;99.90;;;;;;5068941;28;20044;-81
2023/05/20 03:57:11;;;;;;;6.88;3.85;;;11.20;99.90;;;;;;5069841;28;20477;-81
2023/05/20 03:59:37;;;;;;;4.25;3.50;;;10.50;99.90;;;;;;5070872;28;20055;-81
2023/05/20 04:02:03;;;;;;;4.57;3.20;;;10.50;99.90;;;;;;5068942;28;20056;-81
2023/05/20 04:04:29;;;;;;;6.15;3.80;;;10.50;99.90;;;;;;5067442;28;20123;-81
2023/05/20 04:06:55;;;;;;;5.65;3.28;;;10.50;99.90;;;;;;5068049;28;20123;-81
2023/05/20 04:09:21;;;;;;;7.05;3.10;;;10.50;99.90;;;;;;5065824;28;20475;-81
2023/05/20 04:11:47;;;;;;;5.38;3.85;;;10.50;99.90;;;;;;5056725;28;20032;-81
2023/05/20 04:14:14;;;;;;;5.93;3.33;;;10.50;99.90;;;;;;5087928;28;20113;-81
2023/05/20 04:16:39;;;;;;;5.63;3.25;;;10.50;99.90;;;;;;5053043;28;20048;-81
2023/05/20 04:19:06;;;;;;;5.18;3.47;;;10.50;99.90;;;;;;5070012;28;20493;-81
2023/05/20 04:21:32;;;;;;;4.75;3.30;;;10.50;99.90;;;;;;5052445;28;20041;-81
2023/05/20 04:23:57;;;;;;;5.20;3.47;;;10.50;99.90;;;;;;5069283;28;20040;-81
2023/05/20 04:26:23;;;;;;;6.57;3.15;;;10.60;99.90;;;;;;5069224;28;20086;-81
2023/05/20 04:28:49;;;;;;;5.22;3.67;;;10.70;99.90;;;;;;5067849;28;20119;-81
2023/05/20 04:31:14;;;;;;;7.20;3.42;;;10.70;99.90;;;;;;5070054;28;20052;-81
2023/05/20 04:33:40;;;;;;;4.53;2.80;;;10.80;99.90;;;;;;5051428;28;20374;-81
2023/05/20 04:36:08;;;;;;;4.68;3.00;;;10.80;99.90;;;;;;5070305;28;20128;-81
2023/05/20 04:38:37;;;;;;;4.68;3.30;;;10.90;99.90;;;;;;5068397;28;20127;-81
2023/05/20 04:41:03;;;;;;;6.18;3.10;;;11.00;99.90;;;;;;5069367;28;20175;-81
2023/05/20 04:43:29;;;;;;;4.25;3.30;;;11.00;99.90;;;;;;5084580;28;20115;-81
2023/05/20 04:45:56;;;;;;;4.78;3.15;;;11.00;99.90;;;;;;5069375;28;20497;-81
2023/05/20 04:48:22;;;;;;;3.95;2.80;;;11.10;99.90;;;;;;5069143;28;20056;-81
2023/05/20 04:50:48;;;;;;;4.95;2.90;;;11.10;99.90;;;;;;5067740;28;20127;-81
2023/05/20 04:53:15;;;;;;;5.68;2.83;;;11.10;99.90;;;;;;5051082;28;20059;-81
2023/05/20 04:55:42;;;;;;;4.18;3.42;;;11.60;99.90;;;;;;5068783;28;20060;-80
2023/05/20 04:58:13;;;;;;;3.45;2.58;;;11.20;99.90;;;;;;5049511;28;20129;-81
2023/05/20 05:00:40;;;;;;;5.00;2.50;;;11.30;99.90;;;;;;5049295;28;20219;-80
2023/05/20 05:03:06;;;;;;;3.08;2.60;;;11.90;99.90;;;;;;5067150;28;20051;-81
2023/05/20 05:05:33;;;;;;;5.18;2.47;;;11.30;99.90;;;;;;5086251;28;20406;-81
2023/05/20 05:07:58;;;;;;;3.53;2.70;;;11.80;99.90;;;;;;5069597;28;20127;-81
2023/05/20 05:10:24;;;;;;;4.55;2.72;;;11.50;99.90;;;;;;5066831;28;20165;-81
2023/05/20 05:12:50;;;;;;;4.40;2.63;;;11.50;99.90;;;;;;5068363;28;20036;-81
2023/05/20 05:15:15;;;;;;;9.20;2.72;;;11.50;99.90;;;;;;5069788;28;20767;-81
2023/05/20 05:17:41;;;;;;;3.10;2.53;;;11.60;99.90;;;;;;5069198;28;20054;-80
2023/05/20 05:20:07;;;;;;;3.35;2.40;;;11.60;99.90;;;;;;5064467;28;20371;-81
2023/05/20 05:22:35;;;;;;;2.95;2.40;;;11.70;99.90;;;;;;5052882;28;20052;-80
2023/05/20 05:25:02;;;;;;;4.10;2.25;;;11.80;99.90;;;;;;5050149;28;20047;-81
2023/05/20 05:27:28;;;;;;;3.15;2.30;;;11.80;99.90;;;;;;5048273;28;20109;-81
2023/05/20 05:29:53;;;;;;;2.75;2.08;;;12.00;99.90;;;;;;5062789;28;20072;-81
2023/05/20 05:32:19;;;;;;;2.83;2.28;;;12.00;99.90;;;;;;5071327;28;20043;-82
2023/05/20 05:34:45;;;;;;;4.90;2.17;;;12.40;99.90;;;;;;5071018;28;20036;-82
2023/05/20 05:37:11;;;;;;;4.68;2.13;;;13.40;99.90;;;;;;5067617;28;20040;-82
2023/05/20 05:39:36;;;;;;;4.88;2.22;;;14.50;99.90;;;;;;5057008;28;20052;-82
2023/05/20 05:42:03;;;;;;;4.65;2.47;;;15.50;99.90;;;;;;5087760;28;20036;-82
2023/05/20 05:44:28;;;;;;;2.72;1.83;;;16.20;99.90;;;;;;5075267;28;20167;-82
2023/05/20 05:46:54;;;;;;;2.80;1.92;;;16.90;97.00;;;;;;5054193;28;20147;-82
2023/05/20 05:49:19;;;;;;;3.15;2.05;;;17.40;94.60;;;;;;5072725;28;20055;-82
2023/05/20 05:51:45;;;;;;;4.18;2.10;;;17.80;92.30;;;;;;5091364;28;20612;-83
2023/05/20 05:54:11;;;;;;;2.28;2.03;;;18.20;90.50;;;;;;5055748;28;20074;-83
2023/05/20 05:56:36;;;;;;;2.65;2.00;;;18.70;85.30;;;;;;5068516;28;20136;-83
2023/05/20 05:59:04;;;;;;;4.55;2.05;;;18.40;82.70;;;;;;5069267;28;20041;-82
2023/05/20 06:01:30;;;;;;;3.15;2.00;;;18.50;81.30;;;;;;5064521;28;20398;-83
2023/05/20 06:03:55;;;;;;;2.65;1.85;;;18.70;79.40;;;;;;5067045;28;20051;-82
2023/05/20 06:06:21;;;;;;;2.30;2.00;;;18.70;77.00;;;;;;5089396;28;20476;-83
2023/05/20 06:08:47;;;;;;;3.38;1.88;;;18.90;75.80;;;;;;5071629;28;20158;-82
2023/05/20 06:11:12;;;;;;;1.90;1.73;;;18.90;74.70;;;;;;5084217;28;20047;-83
2023/05/20 06:13:38;;;;;;;2.15;1.65;;;18.80;73.40;;;;;;5066351;28;20047;-83
2023/05/20 06:16:04;;;;;;;2.03;1.65;;;18.80;72.70;;;;;;5065537;28;20092;-82
2023/05/20 06:18:29;;;;;;;1.92;1.73;;;18.80;72.40;;;;;;5073407;28;20390;-83
2023/05/20 06:20:56;;;;;;;2.00;1.85;;;19.10;71.90;;;;;;5070521;28;20040;-82
2023/05/20 06:23:22;;;;;;;2.22;1.73;;;19.30;70.90;;;;;;5088633;28;20383;-82
2023/05/20 06:25:48;;;;;;;1.88;1.70;;;19.10;70.10;;;;;;5071648;28;20051;-82
2023/05/20 06:28:14;;;;;;;2.10;1.58;;;18.30;70.90;;;;;;5090616;28;20310;-82
2023/05/20 06:30:40;;;;;;;3.42;2.08;;;17.40;73.00;;;;;;5055582;28;20119;-82
2023/05/20 06:33:06;;;;;;;3.65;1.90;;;16.60;75.40;;;;;;5054446;28;20052;-82
2023/05/20 06:35:33;;;;;;;3.38;1.90;;;16.20;77.70;;;;;;5071812;28;20044;-82
2023/05/20 06:38:00;;;;;;;4.22;1.70;;;16.10;80.20;;;;;;5089627;28;20481;-82
2023/05/20 06:40:26;;;;;;;2.42;1.70;;;15.50;81.40;;;;;;5070409;28;20055;-82
2023/05/20 06:42:54;;;;;;;1.80;1.52;;;15.30;82.40;;;;;;5083709;28;20114;-82
2023/05/20 06:45:20;;;;;;;2.00;1.55;;;15.10;83.80;;;;;;5090269;28;20501;-82
2023/05/20 06:47:47;;;;;;;2.15;1.90;;;15.30;84.70;;;;;;5089511;28;20099;-82
2023/05/20 06:50:13;;;;;;;1.85;1.75;;;15.60;85.00;;;;;;5072098;28;20055;-80
2023/05/20 06:52:39;;;;;;;3.72;1.90;;;15.20;85.60;;;;;;5072341;28;20047;-80
2023/05/20 06:55:09;;;;;;;3.05;2.00;;;15.60;86.00;;;;;;5072537;28;20048;-81
2023/05/20 06:57:35;;;;;;;3.33;1.70;;;15.30;85.50;;;;;;5071533;28;20048;-80
2023/05/20 07:00:02;;;;;;;5.60;1.80;;;15.30;85.30;;;;;;5071797;28;20051;-80
2023/05/20 07:02:28;;;;;;;3.08;1.63;;;15.30;85.80;;;;;;5081886;28;20152;-79
2023/05/20 07:04:53;;;;;;;2.40;1.90;;;15.30;85.70;;;;;;5062610;28;20105;-78
2023/05/20 07:07:19;;;;;;;7.10;2.20;;;15.30;85.50;;;;;;5072161;28;20047;-80
2023/05/20 07:09:44;;;;;;;2.58;1.83;;;15.30;85.50;;;;;;5052052;28;20102;-79
2023/05/20 07:12:10;;;;;;;2.00;1.80;;;15.50;86.30;;;;;;5048773;28;20075;-80
2023/05/20 07:14:36;;;;;;;2.63;1.77;;;15.50;85.90;;;;;;5089024;28;20168;-79
2023/05/20 07:17:01;;;;;;;3.60;1.95;;;15.60;85.30;;;;;;5089570;28;20040;-80
2023/05/20 07:19:27;;;;;;;2.95;2.30;;;15.60;85.00;;;;;;5088816;28;20040;-80
2023/05/20 07:21:52;;;;;;;3.58;2.30;;;15.70;84.10;;;;;;5069720;28;20044;-81
2023/05/20 07:24:18;;;;;;;4.25;2.00;;;16.20;83.90;;;;;;5068845;28;20129;-80
2023/05/20 07:26:43;;;;;;;4.38;2.10;;;15.70;83.60;;;;;;5069704;28;20036;-80
2023/05/20 07:29:09;;;;;;;3.40;2.22;;;16.10;83.90;;;;;;5069358;28;20541;-80
2023/05/20 07:31:35;;;;;;;2.90;2.00;;;15.90;83.50;;;;;;5052754;28;20044;-80
2023/05/20 07:34:01;;;;;;;1.88;1.70;;;16.10;83.50;;;;;;5087609;28;20036;-80
2023/05/20 07:36:27;;;;;;;3.00;2.10;;;16.10;82.90;;;;;;5087627;28;20102;-80
2023/05/20 07:38:53;;;;;;;4.57;2.20;;;16.10;82.40;;;;;;5068447;28;20093;-80
2023/05/20 07:41:20;;;;;;;3.08;1.77;;;16.10;82.10;;;;;;5087427;28;20036;-80
2023/05/20 07:43:46;;;;;;;2.38;2.13;;;16.20;82.20;;;;;;5069031;28;20058;-80
2023/05/20 07:46:11;;;;;;;3.58;2.30;;;16.30;81.70;;;;;;5053464;28;20421;-80
2023/05/20 07:48:37;;;;;;;2.95;2.15;;;16.30;81.90;;;;;;5088607;28;20067;-80
2023/05/20 07:51:03;;;;;;;2.60;2.05;;;16.40;81.90;;;;;;5070893;28;20043;-80
2023/05/20 07:53:28;;;;;;;2.40;2.17;;;16.50;81.30;;;;;;5088899;28;20417;-81
2023/05/20 07:55:55;;;;;;;3.05;2.08;;;16.60;81.00;;;;;;5070997;28;20060;-80
2023/05/20 07:58:20;;;;;;;3.90;2.38;;;16.50;80.80;;;;;;5070164;28;20075;-80
2023/05/20 08:00:46;;;;;;;3.03;2.15;;;16.60;80.30;;;;;;5069826;28;20132;-80
2023/05/20 08:03:12;;;;;;;2.65;2.13;;;16.80;80.10;;;;;;5087014;28;20051;-80
2023/05/20 08:05:40;;;;;;;2.10;1.90;;;17.10;79.90;;;;;;5087008;28;20040;-80
2023/05/20 08:08:05;;;;;;;3.08;2.20;;;17.20;79.10;;;;;;5070792;28;20699;-81
2023/05/20 08:10:31;;;;;;;4.40;2.10;;;17.30;78.00;;;;;;5070152;28;20044;-81
2023/05/20 08:12:57;;;;;;;4.00;2.10;;;17.40;77.60;;;;;;5053871;28;20448;-80
2023/05/20 08:15:22;;;;;;;2.38;2.10;;;17.50;77.20;;;;;;5071317;28;20478;-80
2023/05/20 08:17:48;;;;;;;3.17;2.05;;;17.70;77.00;;;;;;5087656;28;20075;-81
2023/05/20 08:20:13;;;;;;;4.30;2.40;;;17.60;77.10;;;;;;5069166;28;20406;-81
2023/05/20 08:22:39;;;;;;;3.67;2.30;;;17.70;76.90;;;;;;5070329;28;20126;-81
2023/05/20 08:25:08;;;;;;;2.50;2.10;;;17.70;75.90;;;;;;5080189;28;20494;-81
2023/05/20 08:27:36;;;;;;;2.88;2.22;;;17.80;75.10;;;;;;5060811;28;20071;-81
2023/05/20 08:30:03;;;;;;;3.80;2.28;;;17.80;75.00;;;;;;5063391;28;20047;-80
2023/05/20 08:32:28;;;;;;;3.33;2.33;;;17.90;74.40;;;;;;5058187;28;20040;-80
2023/05/20 08:34:54;;;;;;;4.72;2.00;;;18.00;74.20;;;;;;5078582;28;20048;-80
2023/05/20 08:37:20;;;;;;;3.70;2.33;;;18.00;74.20;;;;;;5067399;28;20048;-81
2023/05/20 08:39:47;;;;;;;2.65;2.17;;;18.20;73.60;;;;;;5069864;28;20047;-81
2023/05/20 08:42:13;;;;;;;4.30;2.25;;;18.30;72.20;;;;;;5089000;28;20133;-81
2023/05/20 08:44:40;;;;;;;2.97;2.35;;;18.20;71.40;;;;;;5088186;28;20363;-80
2023/05/20 08:47:07;;;;;;;3.65;1.95;;;18.20;71.20;;;;;;5087781;28;20439;-80
2023/05/20 08:49:33;;;;;;;2.70;2.28;;;18.40;71.50;;;;;;5068264;28;20545;-81
2023/05/20 08:52:00;;;;;;;3.47;2.53;;;18.30;70.90;;;;;;5069037;28;20040;-81
2023/05/20 08:54:38;;;;;;;2.88;2.20;;;18.10;70.40;;;;;;5087514;28;20076;-80
2023/05/20 08:57:04;;;;;;;2.80;2.10;;;18.00;69.30;;;;;;5070112;28;20047;-80
2023/05/20 08:59:30;;;;;;;2.08;1.88;;;18.00;70.40;;;;;;5087655;28;20040;-81
2023/05/20 09:01:56;;;;;;;2.67;2.30;;;18.10;70.60;;;;;;5052478;28;20062;-81
2023/05/20 09:04:22;;;;;;;3.45;2.33;;;18.30;70.60;;;;;;5070282;28;20056;-81
2023/05/20 09:06:50;;;;;;;4.00;2.42;;;18.20;70.60;;;;;;5086746;28;20080;-81
2023/05/20 09:09:15;;;;;;;2.25;1.90;;;18.60;70.30;;;;;;5086514;28;20063;-82
2023/05/20 09:11:41;;;;;;;3.05;2.17;;;18.50;70.30;;;;;;5068190;28;20052;-81
2023/05/20 09:14:07;;;;;;;4.18;2.15;;;18.70;68.90;;;;;;5063846;28;20509;-82
2023/05/20 09:16:33;;;;;;;3.95;2.38;;;18.70;68.50;;;;;;5059332;28;20062;-82
2023/05/20 09:18:59;;;;;;;2.40;1.70;;;18.60;68.20;;;;;;5062034;28;20045;-82
2023/05/20 09:21:27;;;;;;;2.92;2.05;;;18.60;67.60;;;;;;5064967;28;20055;-81
2023/05/20 09:23:58;;;;;;;3.80;1.95;;;18.60;68.20;;;;;;5087989;28;20044;-82
2023/05/20 09:26:28;;;;;;;4.47;1.90;;;18.60;68.30;;;;;;5071910;28;20585;-82
2023/05/20 09:28:57;;;;;;;4.13;2.28;;;18.80;67.70;;;;;;5034592;28;20425;-82
2023/05/20 09:31:42;;;;;;;2.80;1.70;;;18.90;67.50;;;;;;5068883;28;20545;-82
2023/05/20 09:34:08;;;;;;;3.70;1.80;;;19.00;66.90;;;;;;5070818;28;20055;-82
2023/05/20 09:36:34;;;;;;;4.03;1.90;;;19.10;66.70;;;;;;5071877;28;20639;-82
2023/05/20 09:39:03;;;;;;;2.75;2.00;;;19.00;65.70;;;;;;5071039;28;20083;-82
2023/05/20 09:41:38;;;;;;;3.92;2.42;;;18.90;64.60;;;;;;5071090;28;20044;-82
2023/05/20 09:44:05;;;;;;;2.97;1.85;;;18.90;63.90;;;;;;5069649;28;20127;-83
2023/05/20 09:46:33;;;;;;;2.40;2.20;;;18.70;64.90;;;;;;5070269;28;20127;-82
2023/05/20 09:48:59;;;;;;;2.75;2.50;;;18.80;65.10;;;;;;5070676;28;20409;-86
2023/05/20 09:51:28;;;;;;;4.72;2.47;;;18.80;64.40;;;;;;5061142;28;20044;-84
2023/05/20 09:53:54;;;;;;;2.35;2.15;;;19.00;64.80;;;;;;5057941;28;20044;-85
2023/05/20 09:56:22;;;;;;;2.45;2.25;;;19.00;64.90;;;;;;5057862;28;20051;-85
2023/05/20 09:58:49;;;;;;;2.53;1.70;;;19.10;64.60;;;;;;5062365;28;20067;-85
2023/05/20 10:01:15;;;;;;;3.30;2.08;;;19.20;64.50;;;;;;5079184;28;20491;-86
2023/05/20 10:03:41;;;;;;;2.88;2.10;;;19.40;63.90;;;;;;5068506;28;20087;-84
2023/05/20 10:06:49;;;;;;;2.30;2.00;;;19.40;63.10;;;;;;5069629;28;20040;-85
2023/05/20 10:09:41;;;;;;;5.00;2.15;;;19.50;62.00;;;;;;5085007;28;20048;-83
2023/05/20 10:12:17;;;;;;;3.00;1.98;;;19.50;62.90;;;;;;5066923;28;20115;-84
2023/05/20 10:15:17;;;;;;;3.15;2.28;;;19.70;62.40;;;;;;5068888;28;20040;-85
2023/05/20 10:17:58;;;;;;;3.17;1.88;;;19.60;62.10;;;;;;5078704;28;20527;-84
2023/05/20 10:20:23;;;;;;;2.90;2.08;;;19.40;61.80;;;;;;5055877;28;20043;-87
2023/05/20 10:22:56;;;;;;;3.03;2.05;;;19.60;62.10;;;;;;5071854;28;20410;-85
2023/05/20 10:25:27;;;;;;;1.92;1.77;;;19.40;61.20;;;;;;5071250;28;20067;-85
2023/05/20 10:28:04;;;;;;;2.30;1.70;;;19.30;61.50;;;;;;5058307;28;20044;-84
2023/05/20 10:30:30;;;;;;;3.05;2.15;;;19.30;61.90;;;;;;5040132;28;20056;-84
2023/05/20 10:33:01;;;;;;;5.13;1.95;;;19.20;62.20;;;;;;5062315;28;20048;-85
2023/05/20 10:35:27;;;;;;;2.75;2.05;;;19.00;62.60;;;;;;5071051;28;20059;-85
2023/05/20 10:38:05;;;;;;;3.17;1.90;;;19.00;62.80;;;;;;5066414;28;20044;-84
2023/05/20 10:40:30;;;;;;;2.45;1.80;;;19.10;63.20;;;;;;5057950;28;20544;-84
2023/05/20 10:43:07;;;;;;;6.47;2.30;;;19.40;62.10;;;;;;5070608;28;20036;-86
2023/05/20 10:45:36;;;;;;;2.97;1.92;;;19.70;61.90;;;;;;5051393;28;20563;-86
2023/05/20 10:48:26;;;;;;;2.75;1.45;;;19.80;61.90;;;;;;5031846;28;20057;-84
2023/05/20 10:51:04;;;;;;;2.45;1.60;;;20.00;60.60;;;;;;5038034;28;20048;-85
2023/05/20 10:53:39;;;;;;;3.72;1.60;;;20.30;61.60;;;;;;5049439;28;20115;-85
2023/05/20 10:56:05;;;;;;;2.28;1.80;;;20.40;60.30;;;;;;5048358;28;20118;-85
2023/05/20 10:58:38;;;;;;;2.88;1.88;;;20.30;60.50;;;;;;5030750;28;20156;-86
2023/05/20 11:01:03;;;;;;;2.10;1.90;;;20.50;59.40;;;;;;5048059;28;20095;-85
2023/05/20 11:03:29;;;;;;;3.47;1.67;;;20.00;60.10;;;;;;5049714;28;20064;-85
2023/05/20 11:05:55;;;;;;;2.45;1.90;;;19.90;60.20;;;;;;5049091;28;20071;-86
2023/05/20 11:08:21;;;;;;;2.13;1.42;;;19.70;60.70;;;;;;5047406;28;20064;-84
2023/05/20 11:10:46;;;;;;;4.35;2.38;;;19.90;60.90;;;;;;5047935;28;20053;-85
2023/05/20 11:13:15;;;;;;;3.47;1.48;;;20.10;61.00;;;;;;5049375;28;20052;-85
2023/05/20 11:15:41;;;;;;;2.22;1.58;;;19.90;59.80;;;;;;5049371;28;20041;-86
2023/05/20 11:18:09;;;;;;;1.67;1.58;;;19.90;60.00;;;;;;5048795;28;20052;-87
2023/05/20 11:20:35;;;;;;;1.90;1.27;;;19.90;58.80;;;;;;5048192;28;20152;-86
2023/05/20 11:23:02;;;;;;;1.63;1.40;;;20.10;58.80;;;;;;5047497;28;20048;-86
2023/05/20 11:25:28;;;;;;;2.42;1.60;;;20.10;58.00;;;;;;5049467;28;20049;-86
2023/05/20 11:27:54;;;;;;;2.75;1.70;;;20.00;57.90;;;;;;5031925;28;20095;-85
2023/05/20 11:30:20;;;;;;;3.25;1.70;;;20.00;57.70;;;;;;5048496;28;20053;-86
2023/05/20 11:33:02;;;;;;;3.97;1.48;;;20.40;58.60;;;;;;5049083;28;20059;-87
2023/05/20 11:35:30;;;;;;;1.98;1.60;;;20.90;57.00;;;;;;5049911;28;20045;-86
2023/05/20 11:38:06;;;;;;;2.55;1.58;;;20.90;56.60;;;;;;5048367;28;20494;-85
2023/05/20 11:40:32;;;;;;;5.68;1.60;;;21.00;55.30;;;;;;5049015;28;20040;-85
2023/05/20 11:43:00;;;;;;;1.88;1.50;;;20.70;56.10;;;;;;5050191;28;20517;-85
2023/05/20 11:45:26;;;;;;;3.53;1.52;;;20.60;56.70;;;;;;5048645;28;20155;-86
2023/05/20 11:48:03;;;;;;;2.75;1.95;;;20.80;57.20;;;;;;5075048;28;20793;-84
2023/05/20 11:50:39;;;;;;;3.08;1.60;;;20.50;56.60;;;;;;5071783;28;20483;-85
2023/05/20 11:53:07;;;;;;;4.07;1.98;;;20.50;56.80;;;;;;5071600;28;20518;-84
2023/05/20 11:55:33;;;;;;;3.53;2.00;;;20.50;57.00;;;;;;5071902;28;20080;-85
2023/05/20 11:58:01;;;;;;;3.15;2.08;;;20.40;57.00;;;;;;5055460;28;20506;-85
2023/05/20 12:00:27;;;;;;;2.35;1.90;;;20.20;57.10;;;;;;5090345;28;20062;-86
2023/05/20 12:02:52;;;;;;;2.95;2.00;;;20.10;57.40;;;;;;5072138;28;20080;-85
2023/05/20 12:05:19;;;;;;;3.65;1.67;;;20.00;57.40;;;;;;5071025;28;20490;-90
2023/05/20 12:07:44;;;;;;;3.13;1.90;;;20.00;57.50;;;;;;5070434;28;20040;-87
2023/05/20 12:10:10;;;;;;;1.80;1.70;;;20.40;57.40;;;;;;5070229;28;20055;-87
2023/05/20 12:12:36;;;;;;;2.88;1.70;;;20.50;57.00;;;;;;5071060;28;20052;-87
2023/05/20 12:15:03;;;;;;;2.13;1.70;;;20.80;56.50;;;;;;5070644;28;20051;-86
2023/05/20 12:17:30;;;;;;;2.05;1.70;;;21.00;56.00;;;;;;5071148;28;20044;-81
2023/05/20 12:19:56;;;;;;;3.08;1.80;;;20.80;55.80;;;;;;5071281;28;20132;-81
2023/05/20 12:22:22;;;;;;;2.47;1.90;;;20.60;56.00;;;;;;5072076;28;20472;-81
2023/05/20 12:24:48;;;;;;;2.90;1.42;;;20.50;56.50;;;;;;5071668;28;20109;-81
2023/05/20 12:27:14;;;;;;;2.25;1.60;;;20.40;56.80;;;;;;5071113;28;20040;-81
2023/05/20 12:29:40;;;;;;;3.85;1.60;;;20.50;57.40;;;;;;5071985;28;20162;-81
2023/05/20 12:32:05;;;;;;;4.18;1.95;;;20.70;56.70;;;;;;5071792;28;20036;-80
2023/05/20 12:34:32;;;;;;;2.45;1.50;;;21.00;56.00;;;;;;5054841;28;20055;-81
2023/05/20 12:36:57;;;;;;;2.70;1.48;;;21.20;55.70;;;;;;5090933;28;20058;-81
2023/05/20 12:39:23;;;;;;;1.60;1.50;;;21.10;55.70;;;;;;5073129;28;20048;-81
2023/05/20 12:41:48;;;;;;;3.33;1.98;;;20.80;56.30;;;;;;5089746;28;20131;-81
2023/05/20 12:44:14;;;;;;;3.03;1.60;;;20.50;56.20;;;;;;5072105;28;20089;-80
2023/05/20 12:46:40;;;;;;;2.78;1.52;;;20.40;56.50;;;;;;5074545;28;20143;-81
2023/05/20 12:49:05;;;;;;;2.05;1.50;;;20.30;56.80;;;;;;5072502;28;20044;-81